CheckWX is a tool to help pilots better visualize weather data.  It is not intended as a substitute for an official pre-flight weather briefing.

03:23:03 UTC

PACD METAR
Cold Bay Airport
Cold Bay, Alaska, USA
Current

30 mins ago

PACD 210253Z AUTO 30017KT 10SM SCT025 SCT031 BKN039 12/07 A2970 RMK AO2 PK WND 29031/0208 RAB01E23 SLP057 P0006 60006 T01170072 53007 TSNO $
Observed
Sep-21 @ 02:53 UTC
Wind
  • 300° at 17 KTS
Visibility
10 SM
Flight Rules
VFR
Cloud Levels
  • Scattered at 2,500' AGL
  • Scattered at 3,100' AGL
  • Broken at 3,900' AGL
Temperature
12°C / 54°F
Dewpoint
C / 45°F
Humidity
72%
Altimeter
29.7" Hg
Pressure
1005.72 hPa
Current Rain
0.06"
Previous

1 hour ago

PACD 210219Z AUTO 30013KT 5SM -RA FEW023 BKN036 OVC048 09/06 A2970 RMK AO2 PK WND 29031/0208 RAB01 P0006 T00940056 TSNO $
Observed
Sep-21 @ 02:19 UTC
Wind
  • 300° at 13 KTS
Visibility
5 SM
Flight Rules
MVFR
Conditions
Light Rain
Cloud Levels
  • Few at 2,300' AGL
  • Broken at 3,600' AGL
  • Overcast at 4,800' AGL
Temperature
C / 48°F
Dewpoint
C / 43°F
Humidity
82%
Altimeter
29.7" Hg
Pressure
1005.72 hPa
Current Rain
0.06"
Previous

2 hours ago

PACD 210153Z AUTO 29022G25KT 10SM BKN024 BKN033 OVC043 12/06 A2969 RMK AO2 PK WND 29026/0153 SLP053 T01220056 TSNO $
Observed
Sep-21 @ 01:53 UTC
Wind
  • 290° at 22 KTS
  • Gusting to 25 KTS
Visibility
10 SM
Flight Rules
MVFR
Cloud Levels
  • Broken at 2,400' AGL
  • Broken at 3,300' AGL
  • Overcast at 4,300' AGL
Temperature
12°C / 54°F
Dewpoint
C / 43°F
Humidity
67%
Altimeter
29.69" Hg
Pressure
1005.42 hPa